< < Back
Terminal Aerodrome Forecast


Current Version              Previous Versions:   1  2  3  4  5  6  7  8  9  

Terminal Aerodrome Forecast

933
FTUS44 KMRX 261518 AAB
TAFCHA
TAF AMD
KCHA 261518Z 2615/2712 00000KT 1/4SM FG VV002
      TEMPO 2615/2617 3SM BR SCT002 BKN250
     FM261700 20003KT P6SM BKN250
     FM270200 00000KT P6SM BKN120
     FM270900 00000KT P6SM BKN080=

Latest METAR

964
SAUS80 KWBC 261600
MTRCHA
METAR KCHA 261553Z 00000KT M1/4SM FG VV002 01/01 A3039 RMK AO2 SLP296
T00110011


USA.gov is the U.S. government's official web portal to all federal, state and local government web resources and services.